sensor_id;sensor_type;location;lat;lon;timestamp;P1;durP1;ratioP1;P2;durP2;ratioP2
36989;SDS011;22898;52.102;5.776;2023-07-08T00:02:09;1.65;;;1.25;;
36989;SDS011;22898;52.102;5.776;2023-07-08T00:04:36;3.17;;;1.92;;
36989;SDS011;22898;52.102;5.776;2023-07-08T00:07:02;2.25;;;1.40;;
36989;SDS011;22898;52.102;5.776;2023-07-08T00:09:28;1.48;;;1.27;;
36989;SDS011;22898;52.102;5.776;2023-07-08T00:11:53;1.33;;;1.13;;
36989;SDS011;22898;52.102;5.776;2023-07-08T00:14:19;1.48;;;1.10;;
36989;SDS011;22898;52.102;5.776;2023-07-08T00:16:44;3.50;;;1.98;;
36989;SDS011;22898;52.102;5.776;2023-07-08T00:19:10;1.75;;;1.33;;
36989;SDS011;22898;52.102;5.776;2023-07-08T00:21:36;1.50;;;1.02;;
36989;SDS011;22898;52.102;5.776;2023-07-08T00:24:02;2.10;;;1.48;;
36989;SDS011;22898;52.102;5.776;2023-07-08T00:26:28;1.55;;;1.30;;
36989;SDS011;22898;52.102;5.776;2023-07-08T00:28:56;1.35;;;1.02;;
36989;SDS011;22898;52.102;5.776;2023-07-08T00:31:22;2.15;;;1.40;;
36989;SDS011;22898;52.102;5.776;2023-07-08T00:33:49;3.38;;;1.70;;
36989;SDS011;22898;52.102;5.776;2023-07-08T00:36:15;1.65;;;1.17;;
36989;SDS011;22898;52.102;5.776;2023-07-08T00:38:42;1.88;;;1.23;;
36989;SDS011;22898;52.102;5.776;2023-07-08T00:41:14;1.00;;;0.90;;
36989;SDS011;22898;52.102;5.776;2023-07-08T00:43:48;4.80;;;1.67;;
36989;SDS011;22898;52.102;5.776;2023-07-08T00:49:03;2.08;;;1.23;;
36989;SDS011;22898;52.102;5.776;2023-07-08T00:51:32;3.30;;;1.40;;
36989;SDS011;22898;52.102;5.776;2023-07-08T00:54:03;2.17;;;1.30;;
36989;SDS011;22898;52.102;5.776;2023-07-08T00:56:33;1.58;;;1.10;;
36989;SDS011;22898;52.102;5.776;2023-07-08T00:59:05;2.30;;;1.25;;
36989;SDS011;22898;52.102;5.776;2023-07-08T01:01:37;3.00;;;1.63;;
36989;SDS011;22898;52.102;5.776;2023-07-08T01:04:08;1.98;;;1.38;;
36989;SDS011;22898;52.102;5.776;2023-07-08T01:06:39;1.63;;;1.30;;
36989;SDS011;22898;52.102;5.776;2023-07-08T01:09:10;1.77;;;1.55;;
36989;SDS011;22898;52.102;5.776;2023-07-08T01:11:37;1.50;;;1.30;;
36989;SDS011;22898;52.102;5.776;2023-07-08T01:14:06;2.47;;;1.08;;
36989;SDS011;22898;52.102;5.776;2023-07-08T01:16:34;2.70;;;1.10;;
36989;SDS011;22898;52.102;5.776;2023-07-08T01:19:01;2.63;;;1.30;;
36989;SDS011;22898;52.102;5.776;2023-07-08T01:23:55;1.52;;;1.20;;
36989;SDS011;22898;52.102;5.776;2023-07-08T01:26:22;2.42;;;1.40;;
36989;SDS011;22898;52.102;5.776;2023-07-08T01:28:50;1.38;;;1.20;;
36989;SDS011;22898;52.102;5.776;2023-07-08T01:31:17;1.65;;;1.20;;
36989;SDS011;22898;52.102;5.776;2023-07-08T01:33:43;1.77;;;1.20;;
36989;SDS011;22898;52.102;5.776;2023-07-08T01:36:10;2.75;;;1.20;;
36989;SDS011;22898;52.102;5.776;2023-07-08T01:38:36;1.65;;;1.35;;
36989;SDS011;22898;52.102;5.776;2023-07-08T01:41:04;1.65;;;1.25;;
36989;SDS011;22898;52.102;5.776;2023-07-08T01:43:30;1.95;;;1.20;;
36989;SDS011;22898;52.102;5.776;2023-07-08T01:45:56;2.08;;;1.13;;
36989;SDS011;22898;52.102;5.776;2023-07-08T01:48:33;1.77;;;1.20;;
36989;SDS011;22898;52.102;5.776;2023-07-08T01:51:05;2.40;;;1.40;;
36989;SDS011;22898;52.102;5.776;2023-07-08T01:53:33;1.63;;;1.38;;
36989;SDS011;22898;52.102;5.776;2023-07-08T01:56:01;2.40;;;1.77;;
36989;SDS011;22898;52.102;5.776;2023-07-08T01:58:27;1.20;;;1.02;;
36989;SDS011;22898;52.102;5.776;2023-07-08T02:00:53;2.15;;;1.50;;
36989;SDS011;22898;52.102;5.776;2023-07-08T02:03:19;2.33;;;1.42;;
36989;SDS011;22898;52.102;5.776;2023-07-08T02:05:45;2.03;;;1.42;;
36989;SDS011;22898;52.102;5.776;2023-07-08T02:08:10;2.05;;;1.60;;
36989;SDS011;22898;52.102;5.776;2023-07-08T02:10:37;3.40;;;1.92;;
36989;SDS011;22898;52.102;5.776;2023-07-08T02:13:04;1.38;;;1.17;;
36989;SDS011;22898;52.102;5.776;2023-07-08T02:15:29;1.58;;;1.15;;
36989;SDS011;22898;52.102;5.776;2023-07-08T02:17:56;1.23;;;1.13;;
36989;SDS011;22898;52.102;5.776;2023-07-08T02:20:21;1.63;;;1.23;;
36989;SDS011;22898;52.102;5.776;2023-07-08T02:22:47;2.55;;;1.27;;
36989;SDS011;22898;52.102;5.776;2023-07-08T02:25:13;2.30;;;1.27;;
36989;SDS011;22898;52.102;5.776;2023-07-08T02:27:38;2.45;;;1.42;;
36989;SDS011;22898;52.102;5.776;2023-07-08T02:30:04;2.10;;;1.20;;
36989;SDS011;22898;52.102;5.776;2023-07-08T02:32:31;1.23;;;1.08;;
36989;SDS011;22898;52.102;5.776;2023-07-08T02:34:59;1.42;;;1.10;;
36989;SDS011;22898;52.102;5.776;2023-07-08T02:37:25;2.67;;;1.50;;
36989;SDS011;22898;52.102;5.776;2023-07-08T02:39:50;2.13;;;1.27;;
36989;SDS011;22898;52.102;5.776;2023-07-08T02:42:16;1.35;;;1.08;;
36989;SDS011;22898;52.102;5.776;2023-07-08T02:44:42;2.13;;;1.55;;
36989;SDS011;22898;52.102;5.776;2023-07-08T02:47:07;2.45;;;1.20;;
36989;SDS011;22898;52.102;5.776;2023-07-08T02:49:33;4.93;;;1.00;;
36989;SDS011;22898;52.102;5.776;2023-07-08T02:51:58;2.15;;;1.20;;
36989;SDS011;22898;52.102;5.776;2023-07-08T02:54:24;1.67;;;1.33;;
36989;SDS011;22898;52.102;5.776;2023-07-08T02:56:49;1.73;;;1.30;;
36989;SDS011;22898;52.102;5.776;2023-07-08T02:59:15;1.73;;;1.15;;
36989;SDS011;22898;52.102;5.776;2023-07-08T03:01:41;3.25;;;1.33;;
36989;SDS011;22898;52.102;5.776;2023-07-08T03:04:09;1.30;;;1.20;;
36989;SDS011;22898;52.102;5.776;2023-07-08T03:06:38;1.77;;;1.35;;
36989;SDS011;22898;52.102;5.776;2023-07-08T03:09:08;1.30;;;1.10;;
36989;SDS011;22898;52.102;5.776;2023-07-08T03:11:34;2.10;;;1.35;;
36989;SDS011;22898;52.102;5.776;2023-07-08T03:14:00;2.10;;;1.60;;
36989;SDS011;22898;52.102;5.776;2023-07-08T03:16:26;4.18;;;1.48;;
36989;SDS011;22898;52.102;5.776;2023-07-08T03:18:52;2.30;;;1.50;;
36989;SDS011;22898;52.102;5.776;2023-07-08T03:21:18;1.80;;;1.00;;
36989;SDS011;22898;52.102;5.776;2023-07-08T03:23:43;3.90;;;1.38;;
36989;SDS011;22898;52.102;5.776;2023-07-08T03:26:13;2.30;;;1.27;;
36989;SDS011;22898;52.102;5.776;2023-07-08T03:28:41;1.55;;;1.33;;
36989;SDS011;22898;52.102;5.776;2023-07-08T03:31:08;3.45;;;1.55;;
36989;SDS011;22898;52.102;5.776;2023-07-08T03:33:34;2.42;;;1.42;;
36989;SDS011;22898;52.102;5.776;2023-07-08T03:36:00;5.53;;;1.98;;
36989;SDS011;22898;52.102;5.776;2023-07-08T03:38:27;2.97;;;1.23;;
36989;SDS011;22898;52.102;5.776;2023-07-08T03:40:52;2.20;;;1.35;;
36989;SDS011;22898;52.102;5.776;2023-07-08T03:43:18;1.77;;;1.20;;
36989;SDS011;22898;52.102;5.776;2023-07-08T03:45:44;1.88;;;1.10;;
36989;SDS011;22898;52.102;5.776;2023-07-08T03:48:10;1.48;;;1.25;;
36989;SDS011;22898;52.102;5.776;2023-07-08T03:50:36;2.72;;;1.70;;
36989;SDS011;22898;52.102;5.776;2023-07-08T03:53:02;1.90;;;1.70;;
36989;SDS011;22898;52.102;5.776;2023-07-08T03:55:28;1.65;;;1.33;;
36989;SDS011;22898;52.102;5.776;2023-07-08T03:57:53;1.50;;;1.27;;
36989;SDS011;22898;52.102;5.776;2023-07-08T04:00:19;1.50;;;1.10;;
36989;SDS011;22898;52.102;5.776;2023-07-08T04:02:45;1.60;;;1.10;;
36989;SDS011;22898;52.102;5.776;2023-07-08T04:05:15;1.10;;;1.00;;
36989;SDS011;22898;52.102;5.776;2023-07-08T04:07:41;2.97;;;1.58;;
36989;SDS011;22898;52.102;5.776;2023-07-08T04:10:08;3.75;;;1.80;;
36989;SDS011;22898;52.102;5.776;2023-07-08T04:12:34;2.22;;;1.33;;
36989;SDS011;22898;52.102;5.776;2023-07-08T04:15:00;1.40;;;1.15;;
36989;SDS011;22898;52.102;5.776;2023-07-08T04:17:26;2.33;;;1.10;;
36989;SDS011;22898;52.102;5.776;2023-07-08T04:19:51;1.67;;;1.27;;
36989;SDS011;22898;52.102;5.776;2023-07-08T04:22:17;5.30;;;2.70;;
36989;SDS011;22898;52.102;5.776;2023-07-08T04:24:43;1.90;;;1.40;;
36989;SDS011;22898;52.102;5.776;2023-07-08T04:27:12;1.60;;;1.48;;
36989;SDS011;22898;52.102;5.776;2023-07-08T04:29:40;1.95;;;1.30;;
36989;SDS011;22898;52.102;5.776;2023-07-08T04:32:05;2.38;;;1.33;;
36989;SDS011;22898;52.102;5.776;2023-07-08T04:34:31;1.70;;;1.50;;
36989;SDS011;22898;52.102;5.776;2023-07-08T04:36:57;2.65;;;1.40;;
36989;SDS011;22898;52.102;5.776;2023-07-08T04:39:22;1.92;;;1.30;;
36989;SDS011;22898;52.102;5.776;2023-07-08T04:41:48;3.15;;;1.92;;
36989;SDS011;22898;52.102;5.776;2023-07-08T04:44:14;1.00;;;0.90;;
36989;SDS011;22898;52.102;5.776;2023-07-08T04:46:41;2.47;;;1.30;;
36989;SDS011;22898;52.102;5.776;2023-07-08T04:49:09;1.17;;;1.08;;
36989;SDS011;22898;52.102;5.776;2023-07-08T04:51:36;7.43;;;1.48;;
36989;SDS011;22898;52.102;5.776;2023-07-08T04:54:02;2.15;;;1.52;;
36989;SDS011;22898;52.102;5.776;2023-07-08T04:56:38;1.55;;;1.20;;
36989;SDS011;22898;52.102;5.776;2023-07-08T04:59:09;2.10;;;1.30;;
36989;SDS011;22898;52.102;5.776;2023-07-08T05:01:36;1.73;;;1.40;;
36989;SDS011;22898;52.102;5.776;2023-07-08T05:04:02;1.15;;;0.82;;
36989;SDS011;22898;52.102;5.776;2023-07-08T05:06:30;3.65;;;1.75;;
36989;SDS011;22898;52.102;5.776;2023-07-08T05:08:57;2.60;;;1.45;;
36989;SDS011;22898;52.102;5.776;2023-07-08T05:11:24;1.67;;;1.30;;
36989;SDS011;22898;52.102;5.776;2023-07-08T05:13:49;2.47;;;1.40;;
36989;SDS011;22898;52.102;5.776;2023-07-08T05:16:15;1.73;;;1.30;;
36989;SDS011;22898;52.102;5.776;2023-07-08T05:18:41;2.30;;;1.33;;
36989;SDS011;22898;52.102;5.776;2023-07-08T05:21:08;1.85;;;1.30;;
36989;SDS011;22898;52.102;5.776;2023-07-08T05:23:34;2.08;;;1.67;;
36989;SDS011;22898;52.102;5.776;2023-07-08T05:26:00;2.20;;;1.45;;
36989;SDS011;22898;52.102;5.776;2023-07-08T05:28:27;1.10;;;1.02;;
36989;SDS011;22898;52.102;5.776;2023-07-08T05:30:53;2.65;;;1.23;;
36989;SDS011;22898;52.102;5.776;2023-07-08T05:33:23;1.60;;;1.10;;
36989;SDS011;22898;52.102;5.776;2023-07-08T05:35:50;1.80;;;1.02;;
36989;SDS011;22898;52.102;5.776;2023-07-08T05:38:16;1.75;;;1.20;;
36989;SDS011;22898;52.102;5.776;2023-07-08T05:40:41;1.48;;;1.08;;
36989;SDS011;22898;52.102;5.776;2023-07-08T05:43:07;2.17;;;1.38;;
36989;SDS011;22898;52.102;5.776;2023-07-08T05:45:32;2.10;;;1.30;;
36989;SDS011;22898;52.102;5.776;2023-07-08T05:48:00;1.60;;;1.15;;
36989;SDS011;22898;52.102;5.776;2023-07-08T05:50:26;1.73;;;1.52;;
36989;SDS011;22898;52.102;5.776;2023-07-08T05:52:52;1.40;;;1.00;;
36989;SDS011;22898;52.102;5.776;2023-07-08T05:55:17;2.20;;;1.23;;
36989;SDS011;22898;52.102;5.776;2023-07-08T05:57:43;1.35;;;1.20;;
36989;SDS011;22898;52.102;5.776;2023-07-08T06:00:08;1.58;;;1.20;;
36989;SDS011;22898;52.102;5.776;2023-07-08T06:02:35;1.15;;;1.05;;
36989;SDS011;22898;52.102;5.776;2023-07-08T06:05:01;6.88;;;1.98;;
36989;SDS011;22898;52.102;5.776;2023-07-08T06:07:27;2.35;;;1.27;;
36989;SDS011;22898;52.102;5.776;2023-07-08T06:09:52;2.15;;;1.55;;
36989;SDS011;22898;52.102;5.776;2023-07-08T06:12:20;1.67;;;1.27;;
36989;SDS011;22898;52.102;5.776;2023-07-08T06:14:46;1.23;;;1.05;;
36989;SDS011;22898;52.102;5.776;2023-07-08T06:17:12;1.65;;;1.25;;
36989;SDS011;22898;52.102;5.776;2023-07-08T06:19:37;1.60;;;1.33;;
36989;SDS011;22898;52.102;5.776;2023-07-08T06:22:03;1.30;;;1.15;;
36989;SDS011;22898;52.102;5.776;2023-07-08T06:24:29;2.95;;;1.23;;
36989;SDS011;22898;52.102;5.776;2023-07-08T06:26:54;2.90;;;1.67;;
36989;SDS011;22898;52.102;5.776;2023-07-08T06:29:20;0.93;;;0.88;;
36989;SDS011;22898;52.102;5.776;2023-07-08T06:31:46;1.73;;;1.23;;
36989;SDS011;22898;52.102;5.776;2023-07-08T06:34:11;2.65;;;1.23;;
36989;SDS011;22898;52.102;5.776;2023-07-08T06:36:37;1.27;;;1.13;;
36989;SDS011;22898;52.102;5.776;2023-07-08T06:39:02;3.38;;;1.80;;
36989;SDS011;22898;52.102;5.776;2023-07-08T06:41:31;1.45;;;1.33;;
36989;SDS011;22898;52.102;5.776;2023-07-08T06:43:57;2.28;;;1.30;;
36989;SDS011;22898;52.102;5.776;2023-07-08T06:46:23;1.58;;;1.27;;
36989;SDS011;22898;52.102;5.776;2023-07-08T06:48:49;1.27;;;1.00;;
36989;SDS011;22898;52.102;5.776;2023-07-08T06:51:15;3.38;;;1.40;;
36989;SDS011;22898;52.102;5.776;2023-07-08T06:53:40;1.30;;;1.00;;
36989;SDS011;22898;52.102;5.776;2023-07-08T06:56:06;1.38;;;1.10;;
36989;SDS011;22898;52.102;5.776;2023-07-08T06:58:32;2.08;;;1.30;;
36989;SDS011;22898;52.102;5.776;2023-07-08T07:00:58;2.65;;;1.63;;
36989;SDS011;22898;52.102;5.776;2023-07-08T07:03:24;1.38;;;1.27;;
36989;SDS011;22898;52.102;5.776;2023-07-08T07:05:50;2.30;;;1.60;;
36989;SDS011;22898;52.102;5.776;2023-07-08T07:08:15;1.67;;;1.25;;
36989;SDS011;22898;52.102;5.776;2023-07-08T07:10:41;4.68;;;1.48;;
36989;SDS011;22898;52.102;5.776;2023-07-08T07:13:07;1.95;;;1.52;;
36989;SDS011;22898;52.102;5.776;2023-07-08T07:15:33;2.33;;;1.83;;
36989;SDS011;22898;52.102;5.776;2023-07-08T07:17:58;5.85;;;1.45;;
36989;SDS011;22898;52.102;5.776;2023-07-08T07:20:24;1.80;;;1.10;;
36989;SDS011;22898;52.102;5.776;2023-07-08T07:22:50;1.00;;;0.90;;
36989;SDS011;22898;52.102;5.776;2023-07-08T07:25:16;4.03;;;1.17;;
36989;SDS011;22898;52.102;5.776;2023-07-08T07:27:42;1.77;;;1.42;;
36989;SDS011;22898;52.102;5.776;2023-07-08T07:30:08;2.47;;;1.35;;
36989;SDS011;22898;52.102;5.776;2023-07-08T07:32:37;2.47;;;1.55;;
36989;SDS011;22898;52.102;5.776;2023-07-08T07:35:03;1.83;;;1.40;;
36989;SDS011;22898;52.102;5.776;2023-07-08T07:37:30;1.92;;;1.33;;
36989;SDS011;22898;52.102;5.776;2023-07-08T07:39:56;1.73;;;1.40;;
36989;SDS011;22898;52.102;5.776;2023-07-08T07:42:21;2.15;;;1.58;;
36989;SDS011;22898;52.102;5.776;2023-07-08T07:44:47;5.63;;;1.45;;
36989;SDS011;22898;52.102;5.776;2023-07-08T07:47:13;2.35;;;1.40;;
36989;SDS011;22898;52.102;5.776;2023-07-08T07:49:38;2.03;;;1.52;;
36989;SDS011;22898;52.102;5.776;2023-07-08T07:52:05;2.85;;;1.73;;
36989;SDS011;22898;52.102;5.776;2023-07-08T07:54:31;1.95;;;1.40;;
36989;SDS011;22898;52.102;5.776;2023-07-08T07:56:56;2.95;;;1.88;;
36989;SDS011;22898;52.102;5.776;2023-07-08T07:59:22;1.60;;;1.15;;
36989;SDS011;22898;52.102;5.776;2023-07-08T08:01:47;3.25;;;1.30;;
36989;SDS011;22898;52.102;5.776;2023-07-08T08:04:13;2.28;;;1.27;;
36989;SDS011;22898;52.102;5.776;2023-07-08T08:06:39;1.33;;;1.23;;
36989;SDS011;22898;52.102;5.776;2023-07-08T08:09:05;2.22;;;1.30;;
36989;SDS011;22898;52.102;5.776;2023-07-08T08:11:31;1.52;;;1.30;;
36989;SDS011;22898;52.102;5.776;2023-07-08T08:13:57;3.53;;;1.63;;
36989;SDS011;22898;52.102;5.776;2023-07-08T08:16:23;2.60;;;1.55;;
36989;SDS011;22898;52.102;5.776;2023-07-08T08:18:48;2.47;;;1.30;;
36989;SDS011;22898;52.102;5.776;2023-07-08T08:21:14;2.13;;;1.52;;
36989;SDS011;22898;52.102;5.776;2023-07-08T08:23:40;1.98;;;1.58;;
36989;SDS011;22898;52.102;5.776;2023-07-08T08:26:06;2.65;;;1.92;;
36989;SDS011;22898;52.102;5.776;2023-07-08T08:28:32;1.58;;;1.48;;
36989;SDS011;22898;52.102;5.776;2023-07-08T08:30:58;2.40;;;1.58;;
36989;SDS011;22898;52.102;5.776;2023-07-08T08:33:23;2.22;;;1.60;;
36989;SDS011;22898;52.102;5.776;2023-07-08T08:35:49;2.65;;;1.60;;
36989;SDS011;22898;52.102;5.776;2023-07-08T08:38:14;1.88;;;1.40;;
36989;SDS011;22898;52.102;5.776;2023-07-08T08:40:41;1.92;;;1.55;;
36989;SDS011;22898;52.102;5.776;2023-07-08T08:43:12;2.38;;;1.55;;
36989;SDS011;22898;52.102;5.776;2023-07-08T08:45:43;2.80;;;1.75;;
36989;SDS011;22898;52.102;5.776;2023-07-08T08:48:18;2.47;;;1.73;;
36989;SDS011;22898;52.102;5.776;2023-07-08T08:50:52;3.00;;;1.98;;
36989;SDS011;22898;52.102;5.776;2023-07-08T08:53:21;2.95;;;1.73;;
36989;SDS011;22898;52.102;5.776;2023-07-08T08:56:23;1.92;;;1.42;;
36989;SDS011;22898;52.102;5.776;2023-07-08T08:59:07;2.80;;;2.08;;
36989;SDS011;22898;52.102;5.776;2023-07-08T09:01:48;2.97;;;2.00;;
36989;SDS011;22898;52.102;5.776;2023-07-08T09:04:15;2.65;;;1.88;;
36989;SDS011;22898;52.102;5.776;2023-07-08T09:06:46;3.15;;;1.45;;
36989;SDS011;22898;52.102;5.776;2023-07-08T09:09:13;2.42;;;1.60;;
36989;SDS011;22898;52.102;5.776;2023-07-08T09:11:52;2.50;;;1.63;;
36989;SDS011;22898;52.102;5.776;2023-07-08T09:14:29;1.67;;;1.40;;
36989;SDS011;22898;52.102;5.776;2023-07-08T09:19:31;3.00;;;1.90;;
36989;SDS011;22898;52.102;5.776;2023-07-08T09:22:04;2.65;;;1.73;;
36989;SDS011;22898;52.102;5.776;2023-07-08T09:24:41;3.42;;;1.83;;
36989;SDS011;22898;52.102;5.776;2023-07-08T09:27:14;2.30;;;1.73;;
36989;SDS011;22898;52.102;5.776;2023-07-08T09:29:40;3.92;;;2.13;;
36989;SDS011;22898;52.102;5.776;2023-07-08T09:32:16;3.20;;;1.95;;
36989;SDS011;22898;52.102;5.776;2023-07-08T09:34:45;2.47;;;1.70;;
36989;SDS011;22898;52.102;5.776;2023-07-08T09:37:21;2.97;;;1.70;;
36989;SDS011;22898;52.102;5.776;2023-07-08T09:39:49;3.25;;;1.88;;
36989;SDS011;22898;52.102;5.776;2023-07-08T09:42:16;2.75;;;2.03;;
36989;SDS011;22898;52.102;5.776;2023-07-08T09:44:43;2.55;;;1.30;;
36989;SDS011;22898;52.102;5.776;2023-07-08T09:47:21;3.80;;;2.42;;
36989;SDS011;22898;52.102;5.776;2023-07-08T09:49:48;3.25;;;1.75;;
36989;SDS011;22898;52.102;5.776;2023-07-08T09:52:16;2.95;;;1.85;;
36989;SDS011;22898;52.102;5.776;2023-07-08T09:54:42;5.45;;;2.10;;
36989;SDS011;22898;52.102;5.776;2023-07-08T09:57:11;3.90;;;1.95;;
36989;SDS011;22898;52.102;5.776;2023-07-08T09:59:56;2.05;;;1.52;;
36989;SDS011;22898;52.102;5.776;2023-07-08T10:02:37;3.08;;;1.85;;
36989;SDS011;22898;52.102;5.776;2023-07-08T10:05:13;4.50;;;2.47;;
36989;SDS011;22898;52.102;5.776;2023-07-08T10:07:42;4.00;;;2.30;;
36989;SDS011;22898;52.102;5.776;2023-07-08T10:10:12;3.45;;;1.90;;
36989;SDS011;22898;52.102;5.776;2023-07-08T10:12:42;3.33;;;1.77;;
36989;SDS011;22898;52.102;5.776;2023-07-08T10:15:28;3.72;;;1.80;;
36989;SDS011;22898;52.102;5.776;2023-07-08T10:18:13;4.55;;;2.63;;
36989;SDS011;22898;52.102;5.776;2023-07-08T10:26:21;4.20;;;2.38;;
36989;SDS011;22898;52.102;5.776;2023-07-08T10:31:47;2.67;;;1.70;;
36989;SDS011;22898;52.102;5.776;2023-07-08T10:40:09;4.43;;;2.20;;
36989;SDS011;22898;52.102;5.776;2023-07-08T10:42:53;3.90;;;2.40;;
36989;SDS011;22898;52.102;5.776;2023-07-08T10:50:53;3.08;;;2.00;;
36989;SDS011;22898;52.102;5.776;2023-07-08T11:04:20;2.22;;;1.80;;
36989;SDS011;22898;52.102;5.776;2023-07-08T11:07:15;3.38;;;2.20;;
36989;SDS011;22898;52.102;5.776;2023-07-08T11:09:52;3.05;;;1.88;;
36989;SDS011;22898;52.102;5.776;2023-07-08T11:14:52;3.35;;;1.90;;
36989;SDS011;22898;52.102;5.776;2023-07-08T11:17:48;2.92;;;1.88;;
36989;SDS011;22898;52.102;5.776;2023-07-08T11:20:37;4.13;;;1.92;;
36989;SDS011;22898;52.102;5.776;2023-07-08T11:28:59;3.33;;;2.17;;
36989;SDS011;22898;52.102;5.776;2023-07-08T11:31:27;2.85;;;1.85;;
36989;SDS011;22898;52.102;5.776;2023-07-08T11:33:56;4.90;;;1.92;;
36989;SDS011;22898;52.102;5.776;2023-07-08T11:36:22;2.75;;;2.13;;
36989;SDS011;22898;52.102;5.776;2023-07-08T11:38:50;8.35;;;3.10;;
36989;SDS011;22898;52.102;5.776;2023-07-08T11:41:19;2.72;;;1.65;;
36989;SDS011;22898;52.102;5.776;2023-07-08T11:43:48;2.83;;;1.58;;
36989;SDS011;22898;52.102;5.776;2023-07-08T11:46:18;2.58;;;1.70;;
36989;SDS011;22898;52.102;5.776;2023-07-08T11:48:50;3.15;;;2.13;;
36989;SDS011;22898;52.102;5.776;2023-07-08T11:51:28;3.57;;;1.70;;
36989;SDS011;22898;52.102;5.776;2023-07-08T11:56:28;2.60;;;1.85;;
36989;SDS011;22898;52.102;5.776;2023-07-08T11:59:18;2.70;;;1.88;;
36989;SDS011;22898;52.102;5.776;2023-07-08T12:01:46;3.60;;;2.28;;
36989;SDS011;22898;52.102;5.776;2023-07-08T12:09:58;2.92;;;1.80;;
36989;SDS011;22898;52.102;5.776;2023-07-08T12:12:50;3.20;;;2.08;;
36989;SDS011;22898;52.102;5.776;2023-07-08T12:17:53;3.00;;;2.17;;
36989;SDS011;22898;52.102;5.776;2023-07-08T12:20:29;3.63;;;2.28;;
36989;SDS011;22898;52.102;5.776;2023-07-08T12:22:57;3.70;;;1.98;;
36989;SDS011;22898;52.102;5.776;2023-07-08T12:25:30;3.50;;;1.63;;
36989;SDS011;22898;52.102;5.776;2023-07-08T12:27:57;2.95;;;2.00;;
36989;SDS011;22898;52.102;5.776;2023-07-08T12:30:23;3.45;;;1.70;;
36989;SDS011;22898;52.102;5.776;2023-07-08T12:32:52;2.65;;;1.70;;
36989;SDS011;22898;52.102;5.776;2023-07-08T12:35:21;3.20;;;1.98;;
36989;SDS011;22898;52.102;5.776;2023-07-08T12:37:50;3.22;;;1.75;;
36989;SDS011;22898;52.102;5.776;2023-07-08T12:40:18;4.22;;;2.13;;
36989;SDS011;22898;52.102;5.776;2023-07-08T12:42:46;2.92;;;1.98;;
36989;SDS011;22898;52.102;5.776;2023-07-08T12:45:13;3.17;;;1.83;;
36989;SDS011;22898;52.102;5.776;2023-07-08T12:47:41;2.15;;;1.77;;
36989;SDS011;22898;52.102;5.776;2023-07-08T12:50:08;2.17;;;1.50;;
36989;SDS011;22898;52.102;5.776;2023-07-08T12:52:35;3.08;;;1.83;;
36989;SDS011;22898;52.102;5.776;2023-07-08T12:55:00;3.20;;;2.10;;
36989;SDS011;22898;52.102;5.776;2023-07-08T12:57:26;2.90;;;2.10;;
36989;SDS011;22898;52.102;5.776;2023-07-08T12:59:51;4.28;;;1.80;;
36989;SDS011;22898;52.102;5.776;2023-07-08T13:02:18;3.13;;;1.75;;
36989;SDS011;22898;52.102;5.776;2023-07-08T13:04:47;5.82;;;2.15;;
36989;SDS011;22898;52.102;5.776;2023-07-08T13:10:00;2.72;;;1.70;;
36989;SDS011;22898;52.102;5.776;2023-07-08T13:12:28;3.22;;;1.88;;
36989;SDS011;22898;52.102;5.776;2023-07-08T13:14:54;2.08;;;1.42;;
36989;SDS011;22898;52.102;5.776;2023-07-08T13:17:23;5.57;;;1.90;;
36989;SDS011;22898;52.102;5.776;2023-07-08T13:19:48;3.58;;;2.22;;
36989;SDS011;22898;52.102;5.776;2023-07-08T13:22:16;4.88;;;2.22;;
36989;SDS011;22898;52.102;5.776;2023-07-08T13:24:44;3.30;;;1.92;;
36989;SDS011;22898;52.102;5.776;2023-07-08T13:27:13;3.08;;;1.50;;
36989;SDS011;22898;52.102;5.776;2023-07-08T13:29:45;2.97;;;1.83;;
36989;SDS011;22898;52.102;5.776;2023-07-08T13:32:10;4.75;;;1.55;;
36989;SDS011;22898;52.102;5.776;2023-07-08T13:34:36;2.97;;;1.73;;
36989;SDS011;22898;52.102;5.776;2023-07-08T13:37:02;3.80;;;2.15;;
36989;SDS011;22898;52.102;5.776;2023-07-08T13:39:29;3.28;;;2.15;;
36989;SDS011;22898;52.102;5.776;2023-07-08T13:41:58;3.08;;;1.77;;
36989;SDS011;22898;52.102;5.776;2023-07-08T13:44:25;5.25;;;2.30;;
36989;SDS011;22898;52.102;5.776;2023-07-08T13:46:52;3.92;;;2.17;;
36989;SDS011;22898;52.102;5.776;2023-07-08T13:52:08;4.53;;;2.63;;
36989;SDS011;22898;52.102;5.776;2023-07-08T13:54:42;4.28;;;2.00;;
36989;SDS011;22898;52.102;5.776;2023-07-08T13:57:23;5.15;;;1.83;;
36989;SDS011;22898;52.102;5.776;2023-07-08T13:59:54;6.30;;;2.42;;
36989;SDS011;22898;52.102;5.776;2023-07-08T14:02:27;8.55;;;2.83;;
36989;SDS011;22898;52.102;5.776;2023-07-08T14:04:54;4.35;;;2.20;;
36989;SDS011;22898;52.102;5.776;2023-07-08T14:07:29;4.28;;;3.17;;
36989;SDS011;22898;52.102;5.776;2023-07-08T14:09:57;3.05;;;1.95;;
36989;SDS011;22898;52.102;5.776;2023-07-08T14:12:22;3.08;;;1.98;;
36989;SDS011;22898;52.102;5.776;2023-07-08T14:14:48;2.92;;;1.63;;
36989;SDS011;22898;52.102;5.776;2023-07-08T14:17:21;3.75;;;2.25;;
36989;SDS011;22898;52.102;5.776;2023-07-08T14:19:51;2.63;;;2.20;;
36989;SDS011;22898;52.102;5.776;2023-07-08T14:22:30;3.42;;;2.03;;
36989;SDS011;22898;52.102;5.776;2023-07-08T14:24:56;4.00;;;2.03;;
36989;SDS011;22898;52.102;5.776;2023-07-08T14:27:33;2.38;;;1.65;;
36989;SDS011;22898;52.102;5.776;2023-07-08T14:29:58;7.43;;;2.28;;
36989;SDS011;22898;52.102;5.776;2023-07-08T14:32:25;2.90;;;1.65;;
36989;SDS011;22898;52.102;5.776;2023-07-08T14:34:55;2.33;;;1.70;;
36989;SDS011;22898;52.102;5.776;2023-07-08T14:37:23;3.55;;;1.65;;
36989;SDS011;22898;52.102;5.776;2023-07-08T14:39:49;4.50;;;2.38;;
36989;SDS011;22898;52.102;5.776;2023-07-08T14:42:17;2.15;;;1.70;;
36989;SDS011;22898;52.102;5.776;2023-07-08T14:44:52;4.60;;;2.17;;
36989;SDS011;22898;52.102;5.776;2023-07-08T14:47:19;2.95;;;2.05;;
36989;SDS011;22898;52.102;5.776;2023-07-08T14:49:45;3.38;;;2.63;;
36989;SDS011;22898;52.102;5.776;2023-07-08T14:52:11;3.47;;;1.90;;
36989;SDS011;22898;52.102;5.776;2023-07-08T14:54:37;4.90;;;1.67;;
36989;SDS011;22898;52.102;5.776;2023-07-08T14:57:03;5.10;;;1.52;;
36989;SDS011;22898;52.102;5.776;2023-07-08T14:59:31;3.13;;;2.17;;
36989;SDS011;22898;52.102;5.776;2023-07-08T15:01:59;4.28;;;2.42;;
36989;SDS011;22898;52.102;5.776;2023-07-08T15:04:25;3.80;;;1.75;;
36989;SDS011;22898;52.102;5.776;2023-07-08T15:06:51;4.40;;;2.08;;
36989;SDS011;22898;52.102;5.776;2023-07-08T15:09:19;2.75;;;1.90;;
36989;SDS011;22898;52.102;5.776;2023-07-08T15:11:45;2.95;;;1.70;;
36989;SDS011;22898;52.102;5.776;2023-07-08T15:14:44;3.40;;;1.90;;
36989;SDS011;22898;52.102;5.776;2023-07-08T15:17:08;7.03;;;2.03;;
36989;SDS011;22898;52.102;5.776;2023-07-08T15:19:43;4.15;;;1.77;;
36989;SDS011;22898;52.102;5.776;2023-07-08T15:22:09;3.83;;;2.22;;
36989;SDS011;22898;52.102;5.776;2023-07-08T15:24:35;3.15;;;1.92;;
36989;SDS011;22898;52.102;5.776;2023-07-08T15:27:02;3.47;;;2.28;;
36989;SDS011;22898;52.102;5.776;2023-07-08T15:29:29;4.18;;;2.10;;
36989;SDS011;22898;52.102;5.776;2023-07-08T15:31:55;3.85;;;2.25;;
36989;SDS011;22898;52.102;5.776;2023-07-08T15:34:21;3.83;;;2.28;;
36989;SDS011;22898;52.102;5.776;2023-07-08T15:36:47;4.90;;;2.20;;
36989;SDS011;22898;52.102;5.776;2023-07-08T15:39:13;3.78;;;1.98;;
36989;SDS011;22898;52.102;5.776;2023-07-08T15:41:39;3.72;;;1.90;;
36989;SDS011;22898;52.102;5.776;2023-07-08T15:44:09;3.20;;;2.00;;
36989;SDS011;22898;52.102;5.776;2023-07-08T15:46:43;2.95;;;1.98;;
36989;SDS011;22898;52.102;5.776;2023-07-08T15:49:17;4.05;;;2.22;;
36989;SDS011;22898;52.102;5.776;2023-07-08T15:51:45;5.90;;;2.22;;
36989;SDS011;22898;52.102;5.776;2023-07-08T15:54:11;4.28;;;2.00;;
36989;SDS011;22898;52.102;5.776;2023-07-08T15:56:37;3.60;;;2.10;;
36989;SDS011;22898;52.102;5.776;2023-07-08T15:59:04;3.17;;;2.03;;